Terminal Aerodrome Forecast
Issued by NWS

Home | Current Version | Previous Version | Text Only | Print | Product List | Glossary On
Versions: 1 2 3 4 5 6 7 8 9 10 11 12 13 14 15 16 17
000
FTUS42 KFFC 270522
TAFRYY
TAF
KRYY 270522Z 2706/2806 32010G18KT 6SM -SHRA BR BKN015
      TEMPO 2706/2710 6SM -RA BKN008
     FM271100 32010G18KT P6SM BKN020
     FM271500 33013G23KT P6SM SCT025 BKN050
     FM271800 32010G20KT P6SM SCT035
     FM280000 32010KT P6SM BKN050
      AMD NOT SKED TIL 271200=

USA.gov is the U.S. government's official web portal to all federal, state and local government web resources and services.